sensor_id;sensor_type;location;lat;lon;timestamp;P1;P2;P0
62599;PMS7003;48671;48.922;2.346;2023-07-28T01:25:06;4.25;3.00;2.00
62599;PMS7003;48671;48.922;2.346;2023-07-28T01:27:34;4.00;4.00;1.00
62599;PMS7003;48671;48.922;2.346;2023-07-28T02:06:34;4.00;4.00;1.75
62599;PMS7003;48671;48.922;2.346;2023-07-28T02:08:59;5.00;3.50;2.00
62599;PMS7003;48671;48.922;2.346;2023-07-28T02:11:25;2.75;2.75;2.00
62599;PMS7003;48671;48.922;2.346;2023-07-28T02:14:06;3.00;3.00;1.25
62599;PMS7003;48671;48.922;2.346;2023-07-28T02:16:58;4.00;4.00;2.00
62599;PMS7003;48671;48.922;2.346;2023-07-28T02:20:02;4.75;4.00;1.50
62599;PMS7003;48671;48.922;2.346;2023-07-28T02:22:39;3.00;2.25;1.00
62599;PMS7003;48671;48.922;2.346;2023-07-28T02:31:22;2.75;2.75;1.00
62599;PMS7003;48671;48.922;2.346;2023-07-28T02:52:47;3.50;3.50;1.75
62599;PMS7003;48671;48.922;2.346;2023-07-28T03:05:40;7.75;6.25;4.00
62599;PMS7003;48671;48.922;2.346;2023-07-28T03:44:18;3.00;3.00;2.00
62599;PMS7003;48671;48.922;2.346;2023-07-28T03:46:44;3.00;3.00;2.00
62599;PMS7003;48671;48.922;2.346;2023-07-28T03:49:10;4.00;4.00;2.00
62599;PMS7003;48671;48.922;2.346;2023-07-28T03:51:35;2.75;2.75;1.00
62599;PMS7003;48671;48.922;2.346;2023-07-28T03:54:01;1.75;1.75;0.00
62599;PMS7003;48671;48.922;2.346;2023-07-28T03:56:29;1.00;1.00;1.00
62599;PMS7003;48671;48.922;2.346;2023-07-28T03:58:57;2.25;2.25;1.25
62599;PMS7003;48671;48.922;2.346;2023-07-28T04:01:25;4.00;2.00;1.00
62599;PMS7003;48671;48.922;2.346;2023-07-28T04:03:58;2.00;2.00;1.00
62599;PMS7003;48671;48.922;2.346;2023-07-28T04:06:52;3.00;2.00;1.25
62599;PMS7003;48671;48.922;2.346;2023-07-28T04:09:45;2.00;2.00;1.00
62599;PMS7003;48671;48.922;2.346;2023-07-28T04:20:15;2.00;2.00;1.00
62599;PMS7003;48671;48.922;2.346;2023-07-28T04:30:44;1.00;1.00;0.50
62599;PMS7003;48671;48.922;2.346;2023-07-28T04:33:10;2.00;2.00;1.00
62599;PMS7003;48671;48.922;2.346;2023-07-28T04:35:36;1.50;1.50;0.00
62599;PMS7003;48671;48.922;2.346;2023-07-28T04:38:01;4.25;4.25;2.50
62599;PMS7003;48671;48.922;2.346;2023-07-28T04:40:27;2.00;2.00;1.00
62599;PMS7003;48671;48.922;2.346;2023-07-28T04:42:52;2.50;2.50;1.00
62599;PMS7003;48671;48.922;2.346;2023-07-28T04:45:18;3.00;2.50;1.00
62599;PMS7003;48671;48.922;2.346;2023-07-28T04:47:46;1.50;1.50;1.00
62599;PMS7003;48671;48.922;2.346;2023-07-28T04:50:12;2.00;2.00;0.00
62599;PMS7003;48671;48.922;2.346;2023-07-28T04:52:40;1.25;1.25;0.00
62599;PMS7003;48671;48.922;2.346;2023-07-28T04:55:05;2.00;2.00;1.00
62599;PMS7003;48671;48.922;2.346;2023-07-28T04:57:31;2.00;0.00;0.00
62599;PMS7003;48671;48.922;2.346;2023-07-28T04:59:57;1.50;1.50;1.00
62599;PMS7003;48671;48.922;2.346;2023-07-28T05:02:22;2.50;1.50;1.00
62599;PMS7003;48671;48.922;2.346;2023-07-28T05:04:47;1.00;1.00;0.25
62599;PMS7003;48671;48.922;2.346;2023-07-28T05:07:13;2.75;1.00;1.00
62599;PMS7003;48671;48.922;2.346;2023-07-28T05:09:45;2.00;0.50;0.00
62599;PMS7003;48671;48.922;2.346;2023-07-28T05:12:13;2.00;1.50;0.25
62599;PMS7003;48671;48.922;2.346;2023-07-28T05:14:39;1.50;1.50;1.00
62599;PMS7003;48671;48.922;2.346;2023-07-28T05:17:05;1.00;1.00;1.00
62599;PMS7003;48671;48.922;2.346;2023-07-28T05:19:30;1.00;1.00;0.50
62599;PMS7003;48671;48.922;2.346;2023-07-28T05:21:56;2.75;2.00;0.50
62599;PMS7003;48671;48.922;2.346;2023-07-28T05:24:25;0.00;0.00;0.00
62599;PMS7003;48671;48.922;2.346;2023-07-28T05:26:51;1.00;1.00;1.00
62599;PMS7003;48671;48.922;2.346;2023-07-28T05:29:16;1.00;1.00;0.50
62599;PMS7003;48671;48.922;2.346;2023-07-28T05:31:45;0.75;0.75;0.00
62599;PMS7003;48671;48.922;2.346;2023-07-28T05:34:13;1.25;1.25;0.25
62599;PMS7003;48671;48.922;2.346;2023-07-28T05:36:57;3.50;2.50;1.00
62599;PMS7003;48671;48.922;2.346;2023-07-28T05:39:24;0.75;0.75;0.00
62599;PMS7003;48671;48.922;2.346;2023-07-28T05:41:50;0.50;0.50;0.00
62599;PMS7003;48671;48.922;2.346;2023-07-28T05:44:15;1.00;1.00;0.00
62599;PMS7003;48671;48.922;2.346;2023-07-28T05:46:40;0.00;0.00;0.00
62599;PMS7003;48671;48.922;2.346;2023-07-28T05:49:06;0.50;0.50;0.00
62599;PMS7003;48671;48.922;2.346;2023-07-28T05:51:31;1.00;1.00;0.00
62599;PMS7003;48671;48.922;2.346;2023-07-28T05:53:57;1.50;1.00;0.00
62599;PMS7003;48671;48.922;2.346;2023-07-28T05:56:22;1.00;1.00;0.00
62599;PMS7003;48671;48.922;2.346;2023-07-28T05:58:47;2.00;0.00;0.00
62599;PMS7003;48671;48.922;2.346;2023-07-28T06:01:13;1.25;1.25;0.00
62599;PMS7003;48671;48.922;2.346;2023-07-28T06:03:39;1.50;1.50;0.25
62599;PMS7003;48671;48.922;2.346;2023-07-28T06:06:04;0.25;0.25;0.00
62599;PMS7003;48671;48.922;2.346;2023-07-28T06:08:30;1.00;1.00;0.00
62599;PMS7003;48671;48.922;2.346;2023-07-28T06:10:55;2.00;1.00;0.50
62599;PMS7003;48671;48.922;2.346;2023-07-28T06:13:20;2.25;1.00;0.25
62599;PMS7003;48671;48.922;2.346;2023-07-28T06:15:46;1.00;1.00;0.25
62599;PMS7003;48671;48.922;2.346;2023-07-28T06:18:12;1.00;1.00;0.50
62599;PMS7003;48671;48.922;2.346;2023-07-28T06:20:38;2.50;1.00;0.00
62599;PMS7003;48671;48.922;2.346;2023-07-28T06:23:06;1.00;1.00;0.25
62599;PMS7003;48671;48.922;2.346;2023-07-28T06:25:32;2.00;1.75;0.00
62599;PMS7003;48671;48.922;2.346;2023-07-28T06:27:57;1.75;1.75;1.00
62599;PMS7003;48671;48.922;2.346;2023-07-28T06:30:25;0.00;0.00;0.00
62599;PMS7003;48671;48.922;2.346;2023-07-28T06:32:51;1.50;1.50;0.75
62599;PMS7003;48671;48.922;2.346;2023-07-28T06:35:16;0.50;0.50;0.00
62599;PMS7003;48671;48.922;2.346;2023-07-28T06:37:42;1.00;1.00;0.25
62599;PMS7003;48671;48.922;2.346;2023-07-28T06:40:08;1.00;1.00;0.00
62599;PMS7003;48671;48.922;2.346;2023-07-28T06:42:35;0.50;0.50;0.00
62599;PMS7003;48671;48.922;2.346;2023-07-28T06:45:01;2.00;1.00;0.00
62599;PMS7003;48671;48.922;2.346;2023-07-28T06:47:28;3.00;2.00;1.00
62599;PMS7003;48671;48.922;2.346;2023-07-28T06:49:53;1.50;1.50;0.75
62599;PMS7003;48671;48.922;2.346;2023-07-28T06:52:22;1.00;1.00;0.50
62599;PMS7003;48671;48.922;2.346;2023-07-28T06:54:54;3.75;3.00;2.00
62599;PMS7003;48671;48.922;2.346;2023-07-28T06:57:22;1.00;1.00;0.25
62599;PMS7003;48671;48.922;2.346;2023-07-28T06:59:48;1.50;1.25;1.00
62599;PMS7003;48671;48.922;2.346;2023-07-28T07:02:13;2.00;1.50;1.00
62599;PMS7003;48671;48.922;2.346;2023-07-28T07:04:39;2.00;2.00;2.00
62599;PMS7003;48671;48.922;2.346;2023-07-28T07:07:04;4.00;3.75;2.00
62599;PMS7003;48671;48.922;2.346;2023-07-28T07:09:30;4.50;3.00;2.00
62599;PMS7003;48671;48.922;2.346;2023-07-28T07:11:55;6.00;4.75;1.00
62599;PMS7003;48671;48.922;2.346;2023-07-28T07:14:23;3.50;2.75;1.00
62599;PMS7003;48671;48.922;2.346;2023-07-28T07:16:48;6.00;3.00;2.00
62599;PMS7003;48671;48.922;2.346;2023-07-28T07:19:14;5.25;4.00;2.00
62599;PMS7003;48671;48.922;2.346;2023-07-28T07:21:40;6.00;3.00;2.00
62599;PMS7003;48671;48.922;2.346;2023-07-28T07:24:06;9.00;5.00;2.50
62599;PMS7003;48671;48.922;2.346;2023-07-28T07:26:32;6.00;2.50;2.00
62599;PMS7003;48671;48.922;2.346;2023-07-28T07:28:58;6.50;5.00;2.00
62599;PMS7003;48671;48.922;2.346;2023-07-28T07:31:23;3.00;2.00;1.00
62599;PMS7003;48671;48.922;2.346;2023-07-28T07:33:49;1.75;1.75;1.00
62599;PMS7003;48671;48.922;2.346;2023-07-28T07:36:15;5.00;2.50;1.00
62599;PMS7003;48671;48.922;2.346;2023-07-28T07:38:42;0.50;0.25;0.25
62599;PMS7003;48671;48.922;2.346;2023-07-28T07:41:11;3.25;2.25;1.25
62599;PMS7003;48671;48.922;2.346;2023-07-28T07:43:37;6.25;3.75;1.50
62599;PMS7003;48671;48.922;2.346;2023-07-28T07:46:03;4.00;2.25;2.00
62599;PMS7003;48671;48.922;2.346;2023-07-28T07:48:29;7.25;4.50;2.00
62599;PMS7003;48671;48.922;2.346;2023-07-28T07:51:01;3.00;3.00;2.00
62599;PMS7003;48671;48.922;2.346;2023-07-28T07:53:26;2.25;2.00;1.00
62599;PMS7003;48671;48.922;2.346;2023-07-28T07:55:52;1.25;1.25;1.00
62599;PMS7003;48671;48.922;2.346;2023-07-28T07:58:20;3.00;2.75;2.00
62599;PMS7003;48671;48.922;2.346;2023-07-28T08:00:46;2.00;2.00;1.00
62599;PMS7003;48671;48.922;2.346;2023-07-28T08:03:14;2.25;1.50;1.00
62599;PMS7003;48671;48.922;2.346;2023-07-28T08:05:40;1.25;1.25;0.00
62599;PMS7003;48671;48.922;2.346;2023-07-28T08:08:05;4.00;2.00;1.25
62599;PMS7003;48671;48.922;2.346;2023-07-28T08:10:32;1.00;1.00;0.50
62599;PMS7003;48671;48.922;2.346;2023-07-28T08:12:58;2.25;2.25;1.75
62599;PMS7003;48671;48.922;2.346;2023-07-28T08:15:24;1.00;1.00;0.50
62599;PMS7003;48671;48.922;2.346;2023-07-28T08:17:50;2.00;2.00;1.00
62599;PMS7003;48671;48.922;2.346;2023-07-28T08:20:16;2.00;2.00;0.50
62599;PMS7003;48671;48.922;2.346;2023-07-28T08:22:41;3.00;3.00;2.50
62599;PMS7003;48671;48.922;2.346;2023-07-28T08:25:07;2.00;2.00;1.00
62599;PMS7003;48671;48.922;2.346;2023-07-28T08:27:33;2.00;2.00;1.00
62599;PMS7003;48671;48.922;2.346;2023-07-28T08:29:58;3.75;2.75;2.00
62599;PMS7003;48671;48.922;2.346;2023-07-28T08:32:24;3.00;3.00;2.00
62599;PMS7003;48671;48.922;2.346;2023-07-28T08:34:49;3.00;3.00;2.00
62599;PMS7003;48671;48.922;2.346;2023-07-28T08:37:14;2.25;2.25;1.25
62599;PMS7003;48671;48.922;2.346;2023-07-28T08:39:40;4.00;2.75;2.00
62599;PMS7003;48671;48.922;2.346;2023-07-28T08:42:05;5.25;4.75;2.00
62599;PMS7003;48671;48.922;2.346;2023-07-28T08:44:31;4.50;4.00;2.25
62599;PMS7003;48671;48.922;2.346;2023-07-28T08:47:02;3.00;3.00;2.00
62599;PMS7003;48671;48.922;2.346;2023-07-28T08:49:29;3.25;1.50;1.25
62599;PMS7003;48671;48.922;2.346;2023-07-28T08:51:58;2.00;2.00;2.00
62599;PMS7003;48671;48.922;2.346;2023-07-28T08:54:24;3.75;2.50;2.25
62599;PMS7003;48671;48.922;2.346;2023-07-28T08:56:49;3.75;3.75;2.50
62599;PMS7003;48671;48.922;2.346;2023-07-28T08:59:26;2.00;2.00;1.00
62599;PMS7003;48671;48.922;2.346;2023-07-28T09:01:53;4.00;3.50;2.00
62599;PMS7003;48671;48.922;2.346;2023-07-28T09:04:21;2.25;2.25;2.00
62599;PMS7003;48671;48.922;2.346;2023-07-28T09:06:47;3.50;3.00;2.00
62599;PMS7003;48671;48.922;2.346;2023-07-28T09:09:14;4.50;3.75;2.75
62599;PMS7003;48671;48.922;2.346;2023-07-28T09:11:50;4.75;4.75;3.75
62599;PMS7003;48671;48.922;2.346;2023-07-28T09:14:17;4.00;4.00;3.25
62599;PMS7003;48671;48.922;2.346;2023-07-28T09:16:44;4.25;4.25;3.50
62599;PMS7003;48671;48.922;2.346;2023-07-28T09:19:09;5.25;5.25;4.25
62599;PMS7003;48671;48.922;2.346;2023-07-28T09:21:35;6.75;5.25;3.50
62599;PMS7003;48671;48.922;2.346;2023-07-28T09:24:05;10.75;10.50;7.75
62599;PMS7003;48671;48.922;2.346;2023-07-28T09:26:44;2.75;2.25;1.50
62599;PMS7003;48671;48.922;2.346;2023-07-28T09:29:17;10.00;8.50;4.25
62599;PMS7003;48671;48.922;2.346;2023-07-28T09:31:47;5.25;4.00;2.00
62599;PMS7003;48671;48.922;2.346;2023-07-28T09:34:27;14.00;9.00;4.00
62599;PMS7003;48671;48.922;2.346;2023-07-28T09:36:53;11.00;5.75;3.00
62599;PMS7003;48671;48.922;2.346;2023-07-28T09:39:22;5.75;5.50;3.25
62599;PMS7003;48671;48.922;2.346;2023-07-28T09:41:50;9.75;5.00;3.00
62599;PMS7003;48671;48.922;2.346;2023-07-28T09:44:47;7.75;5.25;3.25
62599;PMS7003;48671;48.922;2.346;2023-07-28T09:47:18;15.50;11.75;5.00
62599;PMS7003;48671;48.922;2.346;2023-07-28T09:49:46;6.00;4.00;3.00
62599;PMS7003;48671;48.922;2.346;2023-07-28T09:52:23;5.50;4.00;3.00
62599;PMS7003;48671;48.922;2.346;2023-07-28T10:00:55;6.00;6.00;4.00
62599;PMS7003;48671;48.922;2.346;2023-07-28T10:03:20;5.50;3.75;1.75
62599;PMS7003;48671;48.922;2.346;2023-07-28T10:08:21;6.50;4.50;2.50
62599;PMS7003;48671;48.922;2.346;2023-07-28T10:10:48;7.25;7.00;5.00
62599;PMS7003;48671;48.922;2.346;2023-07-28T10:13:20;10.00;8.25;4.25
62599;PMS7003;48671;48.922;2.346;2023-07-28T10:15:47;13.50;8.75;6.75
62599;PMS7003;48671;48.922;2.346;2023-07-28T10:18:13;10.00;8.00;5.00
62599;PMS7003;48671;48.922;2.346;2023-07-28T10:20:40;11.25;8.00;5.75
62599;PMS7003;48671;48.922;2.346;2023-07-28T10:31:12;6.00;6.00;4.25
62599;PMS7003;48671;48.922;2.346;2023-07-28T10:33:47;9.75;8.00;6.50
62599;PMS7003;48671;48.922;2.346;2023-07-28T10:52:29;6.75;6.75;5.00
62599;PMS7003;48671;48.922;2.346;2023-07-28T11:02:44;2.75;2.75;2.00
62599;PMS7003;48671;48.922;2.346;2023-07-28T11:05:18;5.00;5.00;3.00
62599;PMS7003;48671;48.922;2.346;2023-07-28T11:07:57;5.00;5.00;4.00
62599;PMS7003;48671;48.922;2.346;2023-07-28T11:10:25;5.00;5.00;3.00
62599;PMS7003;48671;48.922;2.346;2023-07-28T11:12:56;4.00;3.75;3.25
62599;PMS7003;48671;48.922;2.346;2023-07-28T11:15:26;5.00;5.00;4.00
62599;PMS7003;48671;48.922;2.346;2023-07-28T11:18:06;6.25;6.00;4.00
62599;PMS7003;48671;48.922;2.346;2023-07-28T11:20:31;6.00;5.00;4.00
62599;PMS7003;48671;48.922;2.346;2023-07-28T11:25:35;7.00;6.00;4.50
62599;PMS7003;48671;48.922;2.346;2023-07-28T11:28:02;5.50;4.00;2.75
62599;PMS7003;48671;48.922;2.346;2023-07-28T11:30:30;9.00;8.00;5.00
62599;PMS7003;48671;48.922;2.346;2023-07-28T11:32:57;10.25;5.75;4.75
62599;PMS7003;48671;48.922;2.346;2023-07-28T11:35:23;6.50;4.50;4.00
62599;PMS7003;48671;48.922;2.346;2023-07-28T11:37:49;7.50;6.00;5.00
62599;PMS7003;48671;48.922;2.346;2023-07-28T11:40:17;6.25;6.00;4.00
62599;PMS7003;48671;48.922;2.346;2023-07-28T11:42:45;5.25;4.75;2.75
62599;PMS7003;48671;48.922;2.346;2023-07-28T11:45:13;6.50;6.25;3.75
62599;PMS7003;48671;48.922;2.346;2023-07-28T11:47:40;8.00;6.50;3.75
62599;PMS7003;48671;48.922;2.346;2023-07-28T11:50:26;6.00;5.50;2.75
62599;PMS7003;48671;48.922;2.346;2023-07-28T11:52:59;6.50;4.75;2.50
62599;PMS7003;48671;48.922;2.346;2023-07-28T11:55:24;4.25;4.25;3.50
62599;PMS7003;48671;48.922;2.346;2023-07-28T11:57:51;5.50;5.00;3.50
62599;PMS7003;48671;48.922;2.346;2023-07-28T12:00:17;5.00;4.50;3.25
62599;PMS7003;48671;48.922;2.346;2023-07-28T12:02:43;5.00;4.75;3.00
62599;PMS7003;48671;48.922;2.346;2023-07-28T12:05:13;4.00;4.00;3.00
62599;PMS7003;48671;48.922;2.346;2023-07-28T12:07:47;5.75;4.50;3.00
62599;PMS7003;48671;48.922;2.346;2023-07-28T12:10:13;3.50;3.50;1.50
62599;PMS7003;48671;48.922;2.346;2023-07-28T12:12:43;5.25;3.50;2.75
62599;PMS7003;48671;48.922;2.346;2023-07-28T12:20:35;4.25;4.25;2.00
62599;PMS7003;48671;48.922;2.346;2023-07-28T12:23:30;4.75;4.75;3.25
62599;PMS7003;48671;48.922;2.346;2023-07-28T12:26:00;4.75;4.75;3.00
62599;PMS7003;48671;48.922;2.346;2023-07-28T12:29:00;5.25;5.25;2.50
62599;PMS7003;48671;48.922;2.346;2023-07-28T12:31:50;10.00;8.25;4.50
62599;PMS7003;48671;48.922;2.346;2023-07-28T12:34:35;11.25;7.75;4.25
62599;PMS7003;48671;48.922;2.346;2023-07-28T12:37:06;6.00;6.00;3.75
62599;PMS7003;48671;48.922;2.346;2023-07-28T12:39:38;17.25;9.25;4.50
62599;PMS7003;48671;48.922;2.346;2023-07-28T12:42:07;9.25;7.50;5.00
62599;PMS7003;48671;48.922;2.346;2023-07-28T12:44:37;4.75;2.50;2.00
62599;PMS7003;48671;48.922;2.346;2023-07-28T12:47:05;4.00;4.00;2.00
62599;PMS7003;48671;48.922;2.346;2023-07-28T12:49:31;6.25;5.75;3.00
62599;PMS7003;48671;48.922;2.346;2023-07-28T12:51:59;4.00;4.00;1.75
62599;PMS7003;48671;48.922;2.346;2023-07-28T12:54:25;3.00;3.00;1.50
62599;PMS7003;48671;48.922;2.346;2023-07-28T12:56:51;4.25;4.25;3.00
62599;PMS7003;48671;48.922;2.346;2023-07-28T12:59:17;7.00;5.50;2.75
62599;PMS7003;48671;48.922;2.346;2023-07-28T13:01:42;4.00;3.25;2.25
62599;PMS7003;48671;48.922;2.346;2023-07-28T13:04:10;4.00;3.75;2.00
62599;PMS7003;48671;48.922;2.346;2023-07-28T13:06:39;4.25;2.75;2.00
62599;PMS7003;48671;48.922;2.346;2023-07-28T13:09:06;3.75;3.00;2.00
62599;PMS7003;48671;48.922;2.346;2023-07-28T13:11:32;4.75;4.00;2.25
62599;PMS7003;48671;48.922;2.346;2023-07-28T13:13:58;2.75;2.75;2.00
62599;PMS7003;48671;48.922;2.346;2023-07-28T13:16:24;6.50;5.50;2.75
62599;PMS7003;48671;48.922;2.346;2023-07-28T13:18:49;5.25;5.00;2.00
62599;PMS7003;48671;48.922;2.346;2023-07-28T13:21:14;2.00;2.00;1.00
62599;PMS7003;48671;48.922;2.346;2023-07-28T13:23:40;3.75;3.00;1.75
62599;PMS7003;48671;48.922;2.346;2023-07-28T13:26:05;4.00;4.00;2.00
62599;PMS7003;48671;48.922;2.346;2023-07-28T13:28:31;4.00;4.00;3.25
62599;PMS7003;48671;48.922;2.346;2023-07-28T13:31:00;3.00;3.00;2.00
62599;PMS7003;48671;48.922;2.346;2023-07-28T13:33:28;4.25;3.50;2.25
62599;PMS7003;48671;48.922;2.346;2023-07-28T13:35:56;3.75;1.50;0.50
62599;PMS7003;48671;48.922;2.346;2023-07-28T13:38:21;4.00;2.00;1.00
62599;PMS7003;48671;48.922;2.346;2023-07-28T13:40:47;4.75;4.75;3.00
62599;PMS7003;48671;48.922;2.346;2023-07-28T13:43:12;4.25;3.25;2.50
62599;PMS7003;48671;48.922;2.346;2023-07-28T13:45:38;4.25;2.00;2.00
62599;PMS7003;48671;48.922;2.346;2023-07-28T13:48:03;12.50;12.50;11.50
62599;PMS7003;48671;48.922;2.346;2023-07-28T13:50:29;5.00;5.00;4.00
62599;PMS7003;48671;48.922;2.346;2023-07-28T13:52:54;2.75;1.75;1.25
62599;PMS7003;48671;48.922;2.346;2023-07-28T13:55:20;3.75;3.00;2.75
62599;PMS7003;48671;48.922;2.346;2023-07-28T13:57:45;3.75;2.25;1.75
62599;PMS7003;48671;48.922;2.346;2023-07-28T14:00:11;2.25;2.25;1.75
62599;PMS7003;48671;48.922;2.346;2023-07-28T14:02:37;4.00;4.00;3.00
62599;PMS7003;48671;48.922;2.346;2023-07-28T14:05:04;4.00;4.00;2.50
62599;PMS7003;48671;48.922;2.346;2023-07-28T14:07:30;4.50;4.50;3.00
62599;PMS7003;48671;48.922;2.346;2023-07-28T14:09:55;6.50;4.75;4.00
62599;PMS7003;48671;48.922;2.346;2023-07-28T14:12:21;4.00;4.00;4.00
62599;PMS7003;48671;48.922;2.346;2023-07-28T14:14:46;3.00;3.00;2.50
62599;PMS7003;48671;48.922;2.346;2023-07-28T14:17:12;6.75;6.75;5.00
62599;PMS7003;48671;48.922;2.346;2023-07-28T14:19:38;6.00;4.75;4.50
62599;PMS7003;48671;48.922;2.346;2023-07-28T14:22:04;4.75;4.75;4.00
62599;PMS7003;48671;48.922;2.346;2023-07-28T14:24:30;3.00;3.00;2.50
62599;PMS7003;48671;48.922;2.346;2023-07-28T14:26:55;4.00;4.00;3.50
62599;PMS7003;48671;48.922;2.346;2023-07-28T14:29:20;7.00;6.25;4.50
62599;PMS7003;48671;48.922;2.346;2023-07-28T14:31:46;7.00;5.75;4.00
62599;PMS7003;48671;48.922;2.346;2023-07-28T14:34:12;6.00;5.50;4.50
62599;PMS7003;48671;48.922;2.346;2023-07-28T14:36:38;8.75;4.00;3.00
62599;PMS7003;48671;48.922;2.346;2023-07-28T14:39:03;4.50;4.50;4.00
62599;PMS7003;48671;48.922;2.346;2023-07-28T14:41:29;5.00;4.50;3.50
62599;PMS7003;48671;48.922;2.346;2023-07-28T14:43:54;3.00;3.00;2.75
62599;PMS7003;48671;48.922;2.346;2023-07-28T14:46:19;6.00;4.75;3.50
62599;PMS7003;48671;48.922;2.346;2023-07-28T14:48:47;7.00;6.00;5.00
62599;PMS7003;48671;48.922;2.346;2023-07-28T14:51:12;5.75;4.00;3.75
62599;PMS7003;48671;48.922;2.346;2023-07-28T14:53:38;5.50;5.50;5.00
62599;PMS7003;48671;48.922;2.346;2023-07-28T14:56:05;6.00;5.50;5.50
62599;PMS7003;48671;48.922;2.346;2023-07-28T14:58:30;7.00;7.00;5.00
62599;PMS7003;48671;48.922;2.346;2023-07-28T15:00:56;5.00;5.00;4.00
62599;PMS7003;48671;48.922;2.346;2023-07-28T15:03:24;6.75;6.00;5.25
62599;PMS7003;48671;48.922;2.346;2023-07-28T15:05:51;5.75;5.75;4.75
62599;PMS7003;48671;48.922;2.346;2023-07-28T15:08:17;5.00;5.00;4.00
62599;PMS7003;48671;48.922;2.346;2023-07-28T15:10:42;4.00;4.00;3.00
62599;PMS7003;48671;48.922;2.346;2023-07-28T15:13:07;3.00;3.00;3.00
62599;PMS7003;48671;48.922;2.346;2023-07-28T15:15:33;3.00;3.00;2.00
62599;PMS7003;48671;48.922;2.346;2023-07-28T15:17:58;4.50;3.75;2.75
62599;PMS7003;48671;48.922;2.346;2023-07-28T15:20:24;3.75;3.75;3.25
62599;PMS7003;48671;48.922;2.346;2023-07-28T15:22:49;3.00;3.00;2.75
62599;PMS7003;48671;48.922;2.346;2023-07-28T15:25:15;2.00;2.00;1.25
62599;PMS7003;48671;48.922;2.346;2023-07-28T15:27:40;4.00;4.00;3.25
62599;PMS7003;48671;48.922;2.346;2023-07-28T15:30:06;7.00;5.00;4.25
62599;PMS7003;48671;48.922;2.346;2023-07-28T15:32:33;3.00;3.00;3.00
62599;PMS7003;48671;48.922;2.346;2023-07-28T15:34:59;5.00;4.25;3.25
62599;PMS7003;48671;48.922;2.346;2023-07-28T15:37:25;3.00;2.75;2.00
62599;PMS7003;48671;48.922;2.346;2023-07-28T15:39:50;3.25;3.25;2.00
62599;PMS7003;48671;48.922;2.346;2023-07-28T15:42:15;4.75;3.50;2.00
62599;PMS7003;48671;48.922;2.346;2023-07-28T15:44:43;4.25;3.00;2.25
62599;PMS7003;48671;48.922;2.346;2023-07-28T15:47:09;3.50;3.50;3.00
62599;PMS7003;48671;48.922;2.346;2023-07-28T15:49:34;3.00;3.00;2.00
62599;PMS7003;48671;48.922;2.346;2023-07-28T15:51:59;2.50;2.50;2.00
62599;PMS7003;48671;48.922;2.346;2023-07-28T15:54:25;3.50;3.50;2.75
62599;PMS7003;48671;48.922;2.346;2023-07-28T15:56:50;4.25;3.00;2.50
62599;PMS7003;48671;48.922;2.346;2023-07-28T15:59:15;5.00;5.00;4.00
62599;PMS7003;48671;48.922;2.346;2023-07-28T16:01:40;6.00;5.00;4.00
62599;PMS7003;48671;48.922;2.346;2023-07-28T16:04:06;3.33;3.33;3.00
62599;PMS7003;48671;48.922;2.346;2023-07-28T16:06:31;4.00;4.00;4.00
62599;PMS7003;48671;48.922;2.346;2023-07-28T16:08:56;4.75;4.75;3.25
62599;PMS7003;48671;48.922;2.346;2023-07-28T16:11:22;5.00;5.00;4.00
62599;PMS7003;48671;48.922;2.346;2023-07-28T16:13:47;4.00;4.00;3.25
62599;PMS7003;48671;48.922;2.346;2023-07-28T16:16:12;3.50;3.50;3.00
62599;PMS7003;48671;48.922;2.346;2023-07-28T16:18:38;6.00;4.25;3.75
62599;PMS7003;48671;48.922;2.346;2023-07-28T16:21:03;6.50;5.25;4.50
62599;PMS7003;48671;48.922;2.346;2023-07-28T16:23:28;5.00;5.00;4.00
62599;PMS7003;48671;48.922;2.346;2023-07-28T16:25:54;5.50;5.00;4.00
62599;PMS7003;48671;48.922;2.346;2023-07-28T16:28:19;7.75;6.00;4.75
62599;PMS7003;48671;48.922;2.346;2023-07-28T16:30:44;7.00;7.00;5.00
62599;PMS7003;48671;48.922;2.346;2023-07-28T16:33:10;7.00;7.00;4.67
62599;PMS7003;48671;48.922;2.346;2023-07-28T16:35:35;7.00;7.00;6.00
62599;PMS7003;48671;48.922;2.346;2023-07-28T16:38:01;8.50;8.50;6.50
62599;PMS7003;48671;48.922;2.346;2023-07-28T16:40:27;9.50;7.50;6.00
62599;PMS7003;48671;48.922;2.346;2023-07-28T16:42:54;7.00;7.00;5.00
62599;PMS7003;48671;48.922;2.346;2023-07-28T16:45:19;5.50;5.50;4.00
62599;PMS7003;48671;48.922;2.346;2023-07-28T16:47:45;6.25;4.50;4.00
62599;PMS7003;48671;48.922;2.346;2023-07-28T16:50:10;5.25;5.00;4.00
62599;PMS7003;48671;48.922;2.346;2023-07-28T16:52:36;6.50;6.50;5.00
62599;PMS7003;48671;48.922;2.346;2023-07-28T16:55:01;6.50;6.00;4.00
62599;PMS7003;48671;48.922;2.346;2023-07-28T16:57:27;5.00;5.00;4.00
62599;PMS7003;48671;48.922;2.346;2023-07-28T16:59:53;6.25;6.25;4.00
62599;PMS7003;48671;48.922;2.346;2023-07-28T17:02:18;5.50;5.50;4.75
62599;PMS7003;48671;48.922;2.346;2023-07-28T17:04:44;5.50;5.50;3.75
62599;PMS7003;48671;48.922;2.346;2023-07-28T17:07:09;5.75;5.75;4.50
62599;PMS7003;48671;48.922;2.346;2023-07-28T17:09:35;7.00;7.00;4.75
62599;PMS7003;48671;48.922;2.346;2023-07-28T17:12:00;6.75;6.75;5.00
62599;PMS7003;48671;48.922;2.346;2023-07-28T17:14:26;8.00;6.75;5.00
62599;PMS7003;48671;48.922;2.346;2023-07-28T17:16:51;6.50;4.75;2.75
62599;PMS7003;48671;48.922;2.346;2023-07-28T17:19:17;7.00;7.00;6.00
62599;PMS7003;48671;48.922;2.346;2023-07-28T17:21:42;5.75;5.75;4.00
62599;PMS7003;48671;48.922;2.346;2023-07-28T17:24:08;4.75;4.75;3.75
62599;PMS7003;48671;48.922;2.346;2023-07-28T17:26:33;7.25;5.25;3.50
62599;PMS7003;48671;48.922;2.346;2023-07-28T17:28:58;4.00;4.00;3.50
62599;PMS7003;48671;48.922;2.346;2023-07-28T17:31:24;8.00;7.25;6.00
62599;PMS7003;48671;48.922;2.346;2023-07-28T17:33:49;6.00;6.00;4.75
62599;PMS7003;48671;48.922;2.346;2023-07-28T17:36:14;6.00;6.00;5.00
62599;PMS7003;48671;48.922;2.346;2023-07-28T17:38:40;6.00;6.00;4.50
62599;PMS7003;48671;48.922;2.346;2023-07-28T17:41:06;4.75;4.75;4.00
62599;PMS7003;48671;48.922;2.346;2023-07-28T17:43:31;6.00;5.00;4.00
62599;PMS7003;48671;48.922;2.346;2023-07-28T17:45:57;7.50;7.50;6.50
62599;PMS7003;48671;48.922;2.346;2023-07-28T17:48:24;9.75;7.50;6.25
62599;PMS7003;48671;48.922;2.346;2023-07-28T17:50:50;1.75;1.75;1.00
62599;PMS7003;48671;48.922;2.346;2023-07-28T17:53:15;8.00;8.00;6.00
62599;PMS7003;48671;48.922;2.346;2023-07-28T17:55:41;8.50;8.00;5.50
62599;PMS7003;48671;48.922;2.346;2023-07-28T17:58:06;7.25;7.25;5.50
62599;PMS7003;48671;48.922;2.346;2023-07-28T18:00:32;7.25;5.50;4.25
62599;PMS7003;48671;48.922;2.346;2023-07-28T18:02:57;11.00;8.00;6.50
62599;PMS7003;48671;48.922;2.346;2023-07-28T18:05:22;7.00;7.00;6.00
62599;PMS7003;48671;48.922;2.346;2023-07-28T18:07:48;10.00;7.75;5.00
62599;PMS7003;48671;48.922;2.346;2023-07-28T18:10:13;8.50;7.00;6.25
62599;PMS7003;48671;48.922;2.346;2023-07-28T18:12:39;10.00;8.75;5.50
62599;PMS7003;48671;48.922;2.346;2023-07-28T18:15:04;8.75;8.75;6.75
62599;PMS7003;48671;48.922;2.346;2023-07-28T18:17:30;6.75;6.75;5.00
62599;PMS7003;48671;48.922;2.346;2023-07-28T18:19:56;6.75;6.75;5.00
62599;PMS7003;48671;48.922;2.346;2023-07-28T18:22:21;5.50;5.50;4.50
62599;PMS7003;48671;48.922;2.346;2023-07-28T18:24:46;5.75;4.00;3.75
62599;PMS7003;48671;48.922;2.346;2023-07-28T18:27:12;6.25;6.25;5.25
62599;PMS7003;48671;48.922;2.346;2023-07-28T18:29:37;6.75;6.75;5.50
62599;PMS7003;48671;48.922;2.346;2023-07-28T18:32:03;8.75;7.00;5.00
62599;PMS7003;48671;48.922;2.346;2023-07-28T18:34:28;8.00;8.00;7.00
62599;PMS7003;48671;48.922;2.346;2023-07-28T18:36:54;9.25;8.50;5.00
62599;PMS7003;48671;48.922;2.346;2023-07-28T18:39:20;10.00;7.75;6.00